createdAt,value
2022-08-29T00:00:18.508Z,100.00
2022-08-29T00:01:21.306Z,100.00
2022-08-29T00:02:24.764Z,100.00
2022-08-29T00:03:27.465Z,100.00
2022-08-29T00:04:31.806Z,100.00
2022-08-29T00:05:36.124Z,100.00
2022-08-29T00:06:37.831Z,100.00
2022-08-29T00:07:39.445Z,100.00
2022-08-29T00:08:41.067Z,100.00
2022-08-29T00:09:42.825Z,100.00
2022-08-29T00:10:44.622Z,100.00
2022-08-29T00:11:46.588Z,100.00
2022-08-29T00:12:48.824Z,100.00
2022-08-29T00:13:50.511Z,100.00
2022-08-29T00:14:52.004Z,100.00
2022-08-29T00:15:53.575Z,100.00
2022-08-29T00:16:55.105Z,100.00
2022-08-29T00:17:56.698Z,100.00
2022-08-29T00:18:58.410Z,100.00
2022-08-29T00:19:59.968Z,100.00
2022-08-29T00:21:02.505Z,100.00
2022-08-29T00:22:03.987Z,100.00
2022-08-29T00:23:07.074Z,100.00
2022-08-29T00:24:08.925Z,100.00
2022-08-29T00:25:12.552Z,100.00
2022-08-29T00:26:14.194Z,100.00
2022-08-29T00:27:16.153Z,100.00
2022-08-29T00:28:17.725Z,100.00
2022-08-29T00:29:19.240Z,100.00
2022-08-29T00:30:22.134Z,100.00
2022-08-29T00:31:23.654Z,100.00
2022-08-29T00:32:25.500Z,100.00
2022-08-29T00:33:27.116Z,100.00
2022-08-29T00:34:28.623Z,100.00
2022-08-29T00:35:36.203Z,100.00
2022-08-29T00:36:37.839Z,100.00
2022-08-29T00:37:40.563Z,100.00
2022-08-29T00:38:42.202Z,100.00
2022-08-29T00:39:44.912Z,100.00
2022-08-29T00:40:51.396Z,100.00
2022-08-29T00:41:53.641Z,100.00
2022-08-29T00:42:55.536Z,100.00
2022-08-29T00:43:57.079Z,100.00
2022-08-29T00:44:58.610Z,100.00
2022-08-29T00:46:11.826Z,100.00
2022-08-29T00:47:19.508Z,100.00
2022-08-29T00:48:21.457Z,100.00
2022-08-29T00:49:23.154Z,100.00
2022-08-29T00:50:40.877Z,100.00
2022-08-29T00:51:42.461Z,100.00
2022-08-29T00:52:48.002Z,100.00
2022-08-29T00:53:57.679Z,100.00
2022-08-29T00:55:02.278Z,100.00
2022-08-29T00:56:07.027Z,100.00
2022-08-29T00:57:09.412Z,100.00
2022-08-29T00:58:18.179Z,100.00
2022-08-29T00:59:28.246Z,100.00
2022-08-29T01:00:31.836Z,100.00
2022-08-29T01:01:33.463Z,100.00
2022-08-29T01:02:40.262Z,100.00
2022-08-29T01:03:43.003Z,100.00
2022-08-29T01:04:45.632Z,100.00
2022-08-29T01:05:48.633Z,100.00
2022-08-29T01:06:51.578Z,100.00
2022-08-29T01:07:53.272Z,100.00
2022-08-29T01:08:57.762Z,100.00
2022-08-29T01:10:00.261Z,100.00
2022-08-29T01:11:36.433Z,100.00
2022-08-29T01:12:38.405Z,100.00
2022-08-29T01:13:44.390Z,100.00
2022-08-29T01:14:52.539Z,100.00
2022-08-29T01:15:57.015Z,100.00
2022-08-29T01:16:59.560Z,100.00
2022-08-29T01:18:03.759Z,100.00
2022-08-29T01:19:24.301Z,100.00
2022-08-29T01:20:32.270Z,100.00
2022-08-29T01:21:55.869Z,100.00
2022-08-29T01:23:06.281Z,100.00
2022-08-29T01:24:35.420Z,100.00
2022-08-29T01:25:40.964Z,100.00
2022-08-29T01:26:45.388Z,100.00
2022-08-29T01:27:52.622Z,100.00
2022-08-29T01:28:54.625Z,100.00
2022-08-29T01:29:57.018Z,100.00
2022-08-29T01:31:01.182Z,100.00
2022-08-29T01:32:03.185Z,100.00
2022-08-29T01:33:04.966Z,100.00
2022-08-29T01:34:06.694Z,100.00
2022-08-29T01:35:08.959Z,100.00
2022-08-29T01:36:14.126Z,100.00
2022-08-29T01:37:17.032Z,100.00
2022-08-29T01:38:27.643Z,100.00
2022-08-29T01:39:36.341Z,100.00
2022-08-29T01:40:38.275Z,100.00
2022-08-29T01:41:41.712Z,100.00
2022-08-29T01:42:44.018Z,100.00
2022-08-29T01:43:49.123Z,100.00
2022-08-29T01:44:53.450Z,100.00
2022-08-29T01:45:56.298Z,100.00
2022-08-29T01:47:02.728Z,100.00
2022-08-29T01:48:05.109Z,100.00
2022-08-29T01:49:09.793Z,100.00
2022-08-29T01:50:14.382Z,100.00
2022-08-29T01:51:16.372Z,100.00
2022-08-29T01:52:18.547Z,100.00
2022-08-29T01:53:20.018Z,100.00
2022-08-29T01:54:21.810Z,100.00
2022-08-29T01:55:25.275Z,100.00
2022-08-29T01:56:31.021Z,100.00
2022-08-29T01:57:33.181Z,100.00
2022-08-29T01:58:34.757Z,100.00
2022-08-29T01:59:37.041Z,100.00
2022-08-29T02:00:39.026Z,100.00
2022-08-29T02:01:44.876Z,100.00
2022-08-29T02:02:46.519Z,100.00
2022-08-29T02:03:48.519Z,100.00
2022-08-29T02:04:50.069Z,100.00
2022-08-29T02:05:51.561Z,100.00
2022-08-29T02:06:53.286Z,100.00
2022-08-29T02:07:54.778Z,100.00
2022-08-29T02:08:56.349Z,100.00
2022-08-29T02:09:57.882Z,100.00
2022-08-29T02:10:59.838Z,100.00
2022-08-29T02:12:07.268Z,100.00
2022-08-29T02:13:08.756Z,100.00
2022-08-29T02:14:19.369Z,100.00
2022-08-29T02:15:21.641Z,100.00
2022-08-29T02:16:26.007Z,100.00
2022-08-29T02:17:27.919Z,100.00
2022-08-29T02:18:29.511Z,100.00
2022-08-29T02:19:32.627Z,100.00
2022-08-29T02:20:34.180Z,100.00
2022-08-29T02:21:35.962Z,100.00
2022-08-29T02:22:39.088Z,100.00
2022-08-29T02:23:41.911Z,100.00
2022-08-29T02:24:44.083Z,100.00
2022-08-29T02:25:47.557Z,100.00
2022-08-29T02:26:49.046Z,100.00
2022-08-29T02:27:52.230Z,100.00
2022-08-29T02:28:54.458Z,100.00
2022-08-29T02:29:56.401Z,100.00
2022-08-29T02:30:58.486Z,100.00
2022-08-29T02:32:00.073Z,100.00
2022-08-29T02:33:03.479Z,100.00
2022-08-29T02:34:10.063Z,100.00
2022-08-29T02:35:13.682Z,100.00
2022-08-29T02:36:15.328Z,100.00
2022-08-29T02:37:17.527Z,100.00
2022-08-29T02:38:19.953Z,100.00
2022-08-29T02:39:21.432Z,100.00
2022-08-29T02:40:24.674Z,100.00
2022-08-29T02:41:33.493Z,100.00
2022-08-29T02:42:35.043Z,100.00
2022-08-29T02:43:37.053Z,100.00
2022-08-29T02:44:38.513Z,100.00
2022-08-29T02:45:42.576Z,100.00
2022-08-29T02:46:44.271Z,100.00
2022-08-29T02:47:45.864Z,100.00
2022-08-29T02:48:59.886Z,100.00
2022-08-29T02:50:05.829Z,100.00
2022-08-29T02:51:07.376Z,100.00
2022-08-29T02:52:08.934Z,100.00
2022-08-29T02:53:11.914Z,100.00
2022-08-29T02:54:13.818Z,100.00
2022-08-29T02:55:17.783Z,100.00
2022-08-29T02:56:20.064Z,100.00
2022-08-29T02:57:21.568Z,100.00
2022-08-29T02:58:24.702Z,100.00
2022-08-29T02:59:27.761Z,100.00
2022-08-29T03:00:29.502Z,100.00
2022-08-29T03:01:31.294Z,100.00
2022-08-29T03:02:32.975Z,100.00
2022-08-29T03:03:35.180Z,100.00
2022-08-29T03:04:36.750Z,100.00
2022-08-29T03:05:38.476Z,100.00
2022-08-29T03:06:40.100Z,100.00
2022-08-29T03:07:42.581Z,100.00
2022-08-29T03:08:44.258Z,100.00
2022-08-29T03:09:45.838Z,100.00
2022-08-29T03:10:47.351Z,100.00
2022-08-29T03:11:49.113Z,100.00
2022-08-29T03:12:51.169Z,100.00
2022-08-29T03:13:57.497Z,100.00
2022-08-29T03:14:59.516Z,100.00
2022-08-29T03:16:05.183Z,100.00
2022-08-29T03:17:06.768Z,100.00
2022-08-29T03:18:08.316Z,100.00
2022-08-29T03:19:09.821Z,100.00
2022-08-29T03:20:13.458Z,100.00
2022-08-29T03:21:17.349Z,100.00
2022-08-29T03:22:19.155Z,100.00
2022-08-29T03:23:20.810Z,100.00
2022-08-29T03:24:25.012Z,100.00
2022-08-29T03:25:28.896Z,100.00
2022-08-29T03:26:30.549Z,100.00
2022-08-29T03:27:32.936Z,100.00
2022-08-29T03:28:34.535Z,100.00
2022-08-29T03:29:37.565Z,100.00
2022-08-29T03:30:40.064Z,100.00
2022-08-29T03:31:41.988Z,100.00
2022-08-29T03:32:44.016Z,100.00
2022-08-29T03:33:45.545Z,100.00
2022-08-29T03:34:47.265Z,100.00
2022-08-29T03:35:48.800Z,100.00
2022-08-29T03:36:52.024Z,100.00
2022-08-29T03:37:55.440Z,100.00
2022-08-29T03:38:57.001Z,100.00
2022-08-29T03:39:58.664Z,100.00
2022-08-29T03:41:00.179Z,100.00
2022-08-29T03:42:01.759Z,100.00
2022-08-29T03:43:03.474Z,100.00
2022-08-29T03:44:05.380Z,100.00
2022-08-29T03:45:10.634Z,100.00
2022-08-29T03:46:12.155Z,100.00
2022-08-29T03:47:14.234Z,100.00
2022-08-29T03:48:16.128Z,100.00
2022-08-29T03:49:17.671Z,100.00
2022-08-29T03:50:20.904Z,100.00
2022-08-29T03:51:22.682Z,100.00
2022-08-29T03:52:26.402Z,100.00
2022-08-29T03:53:28.056Z,100.00
2022-08-29T03:54:29.735Z,100.00
2022-08-29T03:55:31.351Z,100.00
2022-08-29T03:56:33.086Z,100.00
2022-08-29T03:57:34.823Z,100.00
2022-08-29T03:58:37.900Z,100.00
2022-08-29T03:59:39.524Z,100.00
2022-08-29T04:00:41.853Z,100.00
2022-08-29T04:01:44.863Z,100.00
2022-08-29T04:02:50.647Z,100.00
2022-08-29T04:03:53.336Z,100.00
2022-08-29T04:05:08.309Z,100.00
2022-08-29T04:06:10.880Z,100.00
2022-08-29T04:07:14.730Z,100.00
2022-08-29T04:08:16.426Z,100.00
2022-08-29T04:09:18.479Z,100.00
2022-08-29T04:10:27.112Z,100.00
2022-08-29T04:11:29.767Z,100.00
2022-08-29T04:12:31.324Z,100.00
2022-08-29T04:13:32.843Z,100.00
2022-08-29T04:14:35.338Z,100.00
2022-08-29T04:15:38.853Z,100.00
2022-08-29T04:16:40.366Z,100.00
2022-08-29T04:17:51.042Z,100.00
2022-08-29T04:18:54.902Z,100.00
2022-08-29T04:19:56.523Z,100.00
2022-08-29T04:21:02.431Z,100.00
2022-08-29T04:22:05.611Z,100.00
2022-08-29T04:23:07.927Z,100.00
2022-08-29T04:24:09.441Z,100.00
2022-08-29T04:25:13.370Z,100.00
2022-08-29T04:26:35.850Z,100.00
2022-08-29T04:27:38.698Z,100.00
2022-08-29T04:28:40.695Z,100.00
2022-08-29T04:29:42.218Z,100.00
2022-08-29T04:30:52.002Z,100.00
2022-08-29T04:31:54.602Z,100.00
2022-08-29T04:32:56.765Z,100.00
2022-08-29T04:33:58.308Z,100.00
2022-08-29T04:35:00.062Z,100.00
2022-08-29T04:36:06.030Z,100.00
2022-08-29T04:37:07.574Z,100.00
2022-08-29T04:38:09.356Z,100.00
2022-08-29T04:39:11.818Z,100.00
2022-08-29T04:40:18.517Z,100.00
2022-08-29T04:41:20.164Z,100.00
2022-08-29T04:42:21.764Z,100.00
2022-08-29T04:43:23.376Z,100.00
2022-08-29T04:44:24.900Z,100.00
2022-08-29T04:45:26.865Z,100.00
2022-08-29T04:46:28.919Z,100.00
2022-08-29T04:47:31.022Z,100.00
2022-08-29T04:48:33.026Z,100.00
2022-08-29T04:49:34.588Z,100.00
2022-08-29T04:50:36.102Z,100.00
2022-08-29T04:51:37.921Z,100.00
2022-08-29T04:52:40.190Z,100.00
2022-08-29T04:53:41.808Z,100.00
2022-08-29T04:54:43.571Z,100.00
2022-08-29T04:55:45.135Z,100.00
2022-08-29T04:56:47.497Z,100.00
2022-08-29T04:57:52.071Z,100.00
2022-08-29T04:58:53.640Z,100.00
2022-08-29T04:59:56.602Z,100.00
2022-08-29T05:00:58.771Z,100.00
2022-08-29T05:02:00.364Z,100.00
2022-08-29T05:03:02.490Z,100.00
2022-08-29T05:04:04.126Z,100.00
2022-08-29T05:05:06.588Z,100.00
2022-08-29T05:06:11.938Z,100.00
2022-08-29T05:07:14.618Z,100.00
2022-08-29T05:08:16.267Z,100.00
2022-08-29T05:09:17.839Z,100.00
2022-08-29T05:10:21.795Z,100.00
2022-08-29T05:11:26.111Z,100.00
2022-08-29T05:12:30.409Z,100.00
2022-08-29T05:13:32.308Z,100.00
2022-08-29T05:14:34.144Z,100.00
2022-08-29T05:15:38.480Z,100.00
2022-08-29T05:16:40.747Z,100.00
2022-08-29T05:17:42.842Z,100.00
2022-08-29T05:18:46.681Z,100.00
2022-08-29T05:19:49.217Z,100.00
2022-08-29T05:20:50.791Z,100.00
2022-08-29T05:21:57.841Z,100.00
2022-08-29T05:23:00.139Z,100.00
2022-08-29T05:24:07.044Z,100.00
2022-08-29T05:25:15.811Z,100.00
2022-08-29T05:26:19.683Z,100.00
2022-08-29T05:27:22.730Z,100.00
2022-08-29T05:28:25.557Z,100.00
2022-08-29T05:29:27.357Z,100.00
2022-08-29T05:30:34.565Z,100.00
2022-08-29T05:31:41.881Z,100.00
2022-08-29T05:32:44.010Z,100.00
2022-08-29T05:33:45.582Z,100.00
2022-08-29T05:34:48.867Z,100.00
2022-08-29T05:35:50.467Z,100.00
2022-08-29T05:36:52.111Z,100.00
2022-08-29T05:37:53.649Z,100.00
2022-08-29T05:38:55.534Z,100.00
2022-08-29T05:39:57.188Z,100.00
2022-08-29T05:40:58.711Z,100.00
2022-08-29T05:42:01.286Z,100.00
2022-08-29T05:43:03.064Z,100.00
2022-08-29T05:44:04.622Z,100.00
2022-08-29T05:45:07.339Z,100.00
2022-08-29T05:46:10.028Z,100.00
2022-08-29T05:47:13.959Z,100.00
2022-08-29T05:48:17.345Z,100.00
2022-08-29T05:49:19.145Z,100.00
2022-08-29T05:50:20.687Z,100.00
2022-08-29T05:51:24.227Z,100.00
2022-08-29T05:52:26.695Z,100.00
2022-08-29T05:53:28.885Z,100.00
2022-08-29T05:54:34.338Z,100.00
2022-08-29T05:55:40.860Z,100.00
2022-08-29T05:56:42.911Z,100.00
2022-08-29T05:57:44.449Z,100.00
2022-08-29T05:58:45.915Z,100.00
2022-08-29T05:59:49.598Z,100.00
2022-08-29T06:00:51.118Z,100.00
2022-08-29T06:01:52.619Z,100.00
2022-08-29T06:02:54.961Z,100.00
2022-08-29T06:03:57.993Z,100.00
2022-08-29T06:04:59.675Z,100.00
2022-08-29T06:06:01.248Z,100.00
2022-08-29T06:07:04.708Z,100.00
2022-08-29T06:08:07.264Z,100.00
2022-08-29T06:09:09.305Z,100.00
2022-08-29T06:10:10.863Z,100.00
2022-08-29T06:11:20.981Z,100.00
2022-08-29T06:12:24.410Z,100.00
2022-08-29T06:13:26.678Z,100.00
2022-08-29T06:14:28.873Z,100.00
2022-08-29T06:15:30.981Z,100.00
2022-08-29T06:16:32.867Z,100.00
2022-08-29T06:17:35.239Z,100.00
2022-08-29T06:18:36.844Z,100.00
2022-08-29T06:19:39.672Z,100.00
2022-08-29T06:20:41.467Z,100.00
2022-08-29T06:21:43.091Z,100.00
2022-08-29T06:22:44.603Z,100.00
2022-08-29T06:23:47.438Z,100.00
2022-08-29T06:24:53.277Z,100.00
2022-08-29T06:25:59.087Z,100.00
2022-08-29T06:27:01.856Z,98.35
2022-08-29T06:28:03.688Z,97.33
2022-08-29T06:29:08.095Z,96.67
2022-08-29T06:30:09.823Z,95.21
2022-08-29T06:31:14.174Z,93.53
2022-08-29T06:32:15.840Z,91.50
2022-08-29T06:33:17.525Z,89.62
2022-08-29T06:34:19.120Z,87.98
2022-08-29T06:35:20.677Z,85.16
2022-08-29T06:36:22.608Z,83.84
2022-08-29T06:37:24.393Z,78.87
2022-08-29T06:38:25.899Z,77.67
2022-08-29T06:39:27.441Z,76.17
2022-08-29T06:40:29.007Z,73.79
2022-08-29T06:41:30.817Z,70.03
2022-08-29T06:42:32.306Z,68.30
2022-08-29T06:43:34.286Z,66.22
2022-08-29T06:44:35.966Z,65.39
2022-08-29T06:45:42.466Z,65.84
2022-08-29T06:46:47.927Z,65.27
2022-08-29T06:47:49.498Z,62.72
2022-08-29T06:48:51.860Z,60.05
2022-08-29T06:49:53.375Z,60.66
2022-08-29T06:50:54.977Z,60.98
2022-08-29T06:51:58.268Z,60.32
2022-08-29T06:53:14.725Z,61.22
2022-08-29T06:54:25.234Z,61.69
2022-08-29T06:55:29.933Z,62.22
2022-08-29T06:56:32.424Z,62.37
2022-08-29T06:57:34.026Z,62.69
2022-08-29T06:58:36.054Z,60.39
2022-08-29T06:59:37.710Z,59.35
2022-08-29T07:00:47.433Z,61.06
2022-08-29T07:01:51.124Z,61.41
2022-08-29T07:02:53.395Z,61.83
2022-08-29T07:03:56.979Z,61.23
2022-08-29T07:04:58.546Z,59.78
2022-08-29T07:06:00.492Z,59.28
2022-08-29T07:07:02.027Z,57.99
2022-08-29T07:08:03.946Z,56.50
2022-08-29T07:09:06.399Z,55.55
2022-08-29T07:10:09.122Z,54.49
2022-08-29T07:11:11.598Z,55.22
2022-08-29T07:12:13.170Z,55.15
2022-08-29T07:13:14.813Z,55.37
2022-08-29T07:14:16.626Z,54.73
2022-08-29T07:15:19.431Z,53.81
2022-08-29T07:16:21.127Z,53.89
2022-08-29T07:17:25.848Z,53.71
2022-08-29T07:18:28.031Z,52.73
2022-08-29T07:19:29.541Z,52.57
2022-08-29T07:20:31.100Z,52.00
2022-08-29T07:21:33.072Z,51.08
2022-08-29T07:22:35.475Z,49.43
2022-08-29T07:23:37.633Z,50.54
2022-08-29T07:24:39.157Z,50.37
2022-08-29T07:25:40.649Z,49.58
2022-08-29T07:26:44.163Z,49.52
2022-08-29T07:27:46.786Z,49.68
2022-08-29T07:28:58.639Z,49.76
2022-08-29T07:30:03.056Z,49.19
2022-08-29T07:31:06.111Z,47.42
2022-08-29T07:32:07.937Z,47.73
2022-08-29T07:33:09.501Z,46.74
2022-08-29T07:34:11.229Z,46.62
2022-08-29T07:35:18.380Z,46.68
2022-08-29T07:36:26.156Z,46.38
2022-08-29T07:37:27.768Z,45.30
2022-08-29T07:38:30.831Z,44.95
2022-08-29T07:39:32.759Z,45.88
2022-08-29T07:40:34.362Z,45.73
2022-08-29T07:41:37.671Z,44.40
2022-08-29T07:42:39.513Z,43.04
2022-08-29T07:43:42.709Z,42.67
2022-08-29T07:44:44.470Z,41.62
2022-08-29T07:45:46.068Z,40.80
2022-08-29T07:46:47.656Z,41.46
2022-08-29T07:47:49.214Z,41.95
2022-08-29T07:48:52.684Z,41.53
2022-08-29T07:49:54.516Z,40.47
2022-08-29T07:50:56.030Z,40.33
2022-08-29T07:51:57.681Z,40.97
2022-08-29T07:52:59.198Z,41.20
2022-08-29T07:54:00.766Z,40.56
2022-08-29T07:55:05.308Z,40.15
2022-08-29T07:56:09.767Z,39.35
2022-08-29T07:57:11.632Z,40.41
2022-08-29T07:58:13.175Z,39.15
2022-08-29T07:59:15.309Z,39.90
2022-08-29T08:00:17.203Z,40.16
2022-08-29T08:01:21.569Z,39.60
2022-08-29T08:02:23.543Z,38.74
2022-08-29T08:03:27.060Z,40.14
2022-08-29T08:04:28.628Z,40.41
2022-08-29T08:05:30.313Z,40.91
2022-08-29T08:06:34.431Z,40.94
2022-08-29T08:07:39.576Z,42.49
2022-08-29T08:08:44.906Z,42.25
2022-08-29T08:09:48.398Z,41.25
2022-08-29T08:10:52.145Z,39.28
2022-08-29T08:11:54.111Z,39.27
2022-08-29T08:12:55.636Z,39.16
2022-08-29T08:13:57.812Z,39.03
2022-08-29T08:14:59.491Z,38.01
2022-08-29T08:16:05.882Z,38.59
2022-08-29T08:17:07.408Z,39.02
2022-08-29T08:18:09.118Z,39.52
2022-08-29T08:19:10.715Z,39.59
2022-08-29T08:20:12.389Z,38.87
2022-08-29T08:21:14.365Z,37.91
2022-08-29T08:22:15.987Z,36.47
2022-08-29T08:23:19.029Z,36.81
2022-08-29T08:24:21.296Z,37.45
2022-08-29T08:25:24.404Z,38.67
2022-08-29T08:26:26.338Z,39.52
2022-08-29T08:27:27.976Z,39.69
2022-08-29T08:28:30.591Z,40.35
2022-08-29T08:29:32.148Z,40.17
2022-08-29T08:30:35.752Z,40.33
2022-08-29T08:31:42.962Z,40.30
2022-08-29T08:32:48.020Z,40.43
2022-08-29T08:33:51.959Z,40.14
2022-08-29T08:34:54.302Z,39.56
2022-08-29T08:35:57.261Z,40.14
2022-08-29T08:36:59.023Z,39.73
2022-08-29T08:38:01.891Z,40.09
2022-08-29T08:39:03.682Z,40.36
2022-08-29T08:40:06.613Z,40.12
2022-08-29T08:41:27.537Z,39.78
2022-08-29T08:42:44.011Z,38.38
2022-08-29T08:43:51.934Z,39.62
2022-08-29T08:45:06.732Z,39.06
2022-08-29T08:46:08.423Z,39.81
2022-08-29T08:47:12.643Z,41.06
2022-08-29T08:48:30.926Z,39.56
2022-08-29T08:49:32.366Z,40.46
2022-08-29T08:50:43.267Z,40.87
2022-08-29T08:51:51.003Z,41.94
2022-08-29T08:53:07.352Z,41.32
2022-08-29T08:54:20.101Z,40.54
2022-08-29T08:55:41.378Z,39.05
2022-08-29T08:56:46.863Z,38.81
2022-08-29T08:58:09.180Z,40.15
2022-08-29T08:59:18.574Z,39.42
2022-08-29T09:00:20.474Z,39.33
2022-08-29T09:01:31.470Z,38.68
2022-08-29T09:02:35.214Z,38.87
2022-08-29T09:04:14.417Z,38.37
2022-08-29T09:05:34.827Z,39.27
2022-08-29T09:06:53.336Z,37.63
2022-08-29T09:07:57.623Z,36.77
2022-08-29T09:09:17.517Z,37.64
2022-08-29T09:10:31.440Z,38.10
2022-08-29T09:12:03.354Z,39.17
2022-08-29T09:13:08.142Z,39.43
2022-08-29T09:14:26.638Z,39.58
2022-08-29T09:15:38.430Z,38.63
2022-08-29T09:16:48.637Z,37.50
2022-08-29T09:17:57.704Z,37.74
2022-08-29T09:19:03.980Z,38.76
2022-08-29T09:20:10.765Z,38.19
2022-08-29T09:21:39.390Z,38.78
2022-08-29T09:22:40.623Z,38.11
2022-08-29T09:23:44.421Z,38.66
2022-08-29T09:24:56.597Z,38.53
2022-08-29T09:25:58.195Z,38.22
2022-08-29T09:26:59.790Z,39.87
2022-08-29T09:28:02.354Z,41.30
2022-08-29T09:29:04.012Z,40.42
2022-08-29T09:30:05.829Z,41.61
2022-08-29T09:31:25.820Z,40.57
2022-08-29T09:32:27.537Z,42.52
2022-08-29T09:33:42.606Z,43.35
2022-08-29T09:35:08.014Z,42.12
2022-08-29T09:36:17.882Z,42.51
2022-08-29T09:37:34.393Z,41.66
2022-08-29T09:38:36.043Z,43.25
2022-08-29T09:39:37.680Z,42.07
2022-08-29T09:40:44.929Z,41.22
2022-08-29T09:42:08.126Z,43.08
2022-08-29T09:43:36.220Z,44.01
2022-08-29T09:44:39.367Z,42.56
2022-08-29T09:45:41.000Z,43.78
2022-08-29T09:46:42.837Z,42.21
2022-08-29T09:47:45.241Z,41.67
2022-08-29T09:48:53.696Z,41.88
2022-08-29T09:50:24.646Z,40.71
2022-08-29T09:51:26.255Z,40.58
2022-08-29T09:52:28.264Z,41.58
2022-08-29T09:53:30.417Z,41.07
2022-08-29T09:54:32.325Z,40.54
2022-08-29T09:55:35.490Z,39.32
2022-08-29T09:56:40.769Z,38.83
2022-08-29T09:57:48.410Z,38.81
2022-08-29T09:59:11.254Z,39.42
2022-08-29T10:00:21.208Z,38.39
2022-08-29T10:01:28.146Z,38.13
2022-08-29T10:02:43.842Z,39.02
2022-08-29T10:03:58.533Z,41.64
2022-08-29T10:05:06.702Z,40.33
2022-08-29T10:06:23.111Z,38.44
2022-08-29T10:07:28.698Z,38.12
2022-08-29T10:08:36.292Z,37.56
2022-08-29T10:09:38.045Z,36.42
2022-08-29T10:10:52.747Z,37.93
2022-08-29T10:12:07.922Z,38.93
2022-08-29T10:13:22.154Z,37.34
2022-08-29T10:14:38.358Z,36.88
2022-08-29T10:15:50.847Z,35.74
2022-08-29T10:17:20.640Z,35.27
2022-08-29T10:18:44.260Z,35.57
2022-08-29T10:19:46.190Z,33.27
2022-08-29T10:20:56.085Z,33.01
2022-08-29T10:22:17.097Z,32.39
2022-08-29T10:23:48.096Z,31.87
2022-08-29T10:25:28.669Z,32.80
2022-08-29T10:26:38.301Z,32.97
2022-08-29T10:27:48.563Z,32.10
2022-08-29T10:29:10.387Z,33.17
2022-08-29T10:30:17.407Z,32.34
2022-08-29T10:31:34.177Z,33.55
2022-08-29T10:32:52.996Z,32.80
2022-08-29T10:34:25.733Z,34.16
2022-08-29T10:35:33.282Z,32.29
2022-08-29T10:36:38.668Z,33.81
2022-08-29T10:38:04.023Z,34.21
2022-08-29T10:39:43.927Z,31.75
2022-08-29T10:41:02.313Z,32.66
2022-08-29T10:42:16.454Z,31.43
2022-08-29T10:43:45.324Z,31.32
2022-08-29T10:44:50.321Z,32.06
2022-08-29T10:46:06.584Z,32.02
2022-08-29T10:47:20.257Z,33.19
2022-08-29T10:48:30.273Z,34.36
2022-08-29T10:49:31.787Z,33.40
2022-08-29T10:50:46.392Z,33.15
2022-08-29T10:51:53.668Z,34.32
2022-08-29T10:53:25.533Z,31.47
2022-08-29T10:54:39.193Z,31.38
2022-08-29T10:55:56.009Z,31.37
2022-08-29T10:56:59.679Z,30.75
2022-08-29T10:58:20.296Z,31.70
2022-08-29T10:59:35.150Z,31.73
2022-08-29T11:00:46.575Z,32.22
2022-08-29T11:02:05.260Z,31.30
2022-08-29T11:03:35.861Z,32.52
2022-08-29T11:04:39.156Z,32.52
2022-08-29T11:05:46.668Z,32.65
2022-08-29T11:06:59.647Z,31.81
2022-08-29T11:08:01.192Z,31.80
2022-08-29T11:09:17.746Z,32.37
2022-08-29T11:10:31.046Z,31.47
2022-08-29T11:11:36.431Z,30.98
2022-08-29T11:12:49.900Z,29.54
2022-08-29T11:14:01.151Z,30.75
2022-08-29T11:15:15.362Z,31.60
2022-08-29T11:16:33.950Z,32.21
2022-08-29T11:17:40.731Z,32.11
2022-08-29T11:18:53.025Z,31.00
2022-08-29T11:20:05.069Z,30.85
2022-08-29T11:21:20.996Z,31.13
2022-08-29T11:22:29.179Z,30.45
2022-08-29T11:23:37.707Z,31.03
2022-08-29T11:24:43.001Z,30.56
2022-08-29T11:25:48.240Z,30.90
2022-08-29T11:27:15.956Z,33.10
2022-08-29T11:28:29.057Z,31.85
2022-08-29T11:30:07.284Z,32.42
2022-08-29T11:31:46.342Z,33.72
2022-08-29T11:32:50.916Z,33.82
2022-08-29T11:34:22.604Z,33.15
2022-08-29T11:35:43.767Z,33.73
2022-08-29T11:37:20.088Z,33.13
2022-08-29T11:38:50.230Z,31.81
2022-08-29T11:39:57.777Z,32.84
2022-08-29T11:41:30.632Z,32.07
2022-08-29T11:42:52.676Z,30.64
2022-08-29T11:44:09.297Z,31.29
2022-08-29T11:45:14.700Z,30.29
2022-08-29T11:46:30.036Z,31.02
2022-08-29T11:47:46.818Z,31.49
2022-08-29T11:48:55.758Z,31.29
2022-08-29T11:50:29.175Z,30.89
2022-08-29T11:51:37.466Z,29.67
2022-08-29T11:52:50.376Z,28.93
2022-08-29T11:53:51.928Z,31.05
2022-08-29T11:55:24.872Z,29.80
2022-08-29T11:56:28.434Z,31.95
2022-08-29T11:57:31.737Z,31.32
2022-08-29T11:58:38.845Z,31.98
2022-08-29T11:59:49.375Z,31.93
2022-08-29T12:00:56.146Z,31.42
2022-08-29T12:02:01.256Z,32.18
2022-08-29T12:03:07.333Z,32.57
2022-08-29T12:04:53.367Z,32.84
2022-08-29T12:06:18.192Z,33.99
2022-08-29T12:07:22.145Z,34.29
2022-08-29T12:08:37.280Z,32.96
2022-08-29T12:09:50.421Z,31.41
2022-08-29T12:10:56.406Z,32.65
2022-08-29T12:12:04.436Z,31.18
2022-08-29T12:13:06.818Z,32.35
2022-08-29T12:14:08.411Z,33.27
2022-08-29T12:15:28.103Z,33.71
2022-08-29T12:16:49.746Z,35.14
2022-08-29T12:18:01.875Z,32.49
2022-08-29T12:19:47.124Z,32.14
2022-08-29T12:20:52.405Z,31.00
2022-08-29T12:21:54.080Z,34.95
2022-08-29T12:23:00.443Z,33.20
2022-08-29T12:24:04.695Z,34.25
2022-08-29T12:25:27.224Z,33.29
2022-08-29T12:26:40.322Z,33.12
2022-08-29T12:28:02.130Z,32.96
2022-08-29T12:29:10.432Z,31.92
2022-08-29T12:30:14.377Z,31.54
2022-08-29T12:31:34.248Z,32.23
2022-08-29T12:32:45.527Z,33.01
2022-08-29T12:34:25.506Z,32.52
2022-08-29T12:35:56.264Z,33.11
2022-08-29T12:37:16.203Z,31.84
2022-08-29T12:38:31.101Z,31.98
2022-08-29T12:40:11.179Z,31.32
2022-08-29T12:41:48.533Z,31.54
2022-08-29T12:43:10.646Z,31.72
2022-08-29T12:44:16.506Z,32.32
2022-08-29T12:45:26.695Z,32.98
2022-08-29T12:46:40.629Z,33.49
2022-08-29T12:47:49.166Z,34.59
2022-08-29T12:48:57.754Z,33.00
2022-08-29T12:50:16.344Z,35.07
2022-08-29T12:51:37.070Z,34.51
2022-08-29T12:52:38.643Z,35.65
2022-08-29T12:53:40.279Z,35.25
2022-08-29T12:54:42.003Z,34.65
2022-08-29T12:55:53.590Z,33.52
2022-08-29T12:56:57.974Z,33.61
2022-08-29T12:58:00.048Z,32.73
2022-08-29T12:59:04.932Z,32.97
2022-08-29T13:00:15.776Z,32.46
2022-08-29T13:01:49.907Z,35.37
2022-08-29T13:02:58.541Z,35.78
2022-08-29T13:04:13.100Z,35.52
2022-08-29T13:05:25.547Z,37.71
2022-08-29T13:06:32.152Z,36.50
2022-08-29T13:07:33.731Z,36.21
2022-08-29T13:08:39.234Z,35.64
2022-08-29T13:09:45.111Z,35.70
2022-08-29T13:11:07.561Z,35.52
2022-08-29T13:12:14.760Z,33.97
2022-08-29T13:13:20.760Z,32.85
2022-08-29T13:14:23.723Z,32.93
2022-08-29T13:15:30.928Z,31.77
2022-08-29T13:16:34.443Z,31.85
2022-08-29T13:17:41.740Z,30.91
2022-08-29T13:19:00.232Z,30.96
2022-08-29T13:20:45.962Z,31.24
2022-08-29T13:21:47.679Z,31.15
2022-08-29T13:22:49.467Z,30.95
2022-08-29T13:24:03.000Z,31.80
2022-08-29T13:25:05.966Z,32.28
2022-08-29T13:26:10.564Z,31.81
2022-08-29T13:27:24.599Z,31.90
2022-08-29T13:28:37.528Z,31.78
2022-08-29T13:29:41.867Z,31.60
2022-08-29T13:30:43.513Z,31.61
2022-08-29T13:32:09.091Z,31.58
2022-08-29T13:33:27.922Z,31.53
2022-08-29T13:34:37.215Z,31.29
2022-08-29T13:35:38.890Z,31.15
2022-08-29T13:37:07.714Z,31.39
2022-08-29T13:38:21.925Z,32.07
2022-08-29T13:39:27.868Z,32.53
2022-08-29T13:40:43.682Z,31.91
2022-08-29T13:41:48.952Z,32.38
2022-08-29T13:42:50.684Z,31.48
2022-08-29T13:43:52.915Z,30.90
2022-08-29T13:45:00.833Z,30.72
2022-08-29T13:46:25.391Z,30.33
2022-08-29T13:47:45.982Z,30.99
2022-08-29T13:48:58.785Z,31.69
2022-08-29T13:50:05.639Z,31.77
2022-08-29T13:51:08.461Z,30.04
2022-08-29T13:52:11.597Z,31.60
2022-08-29T13:53:13.331Z,31.21
2022-08-29T13:54:15.245Z,30.83
2022-08-29T13:55:16.997Z,31.74
2022-08-29T13:56:22.471Z,29.84
2022-08-29T13:57:26.651Z,30.42
2022-08-29T13:58:30.317Z,29.91
2022-08-29T13:59:35.951Z,30.13
2022-08-29T14:00:38.057Z,29.58
2022-08-29T14:03:01.496Z,30.88
2022-08-29T14:04:27.114Z,30.98
2022-08-29T14:05:25.048Z,30.23